SAS7546 ENGM-EKCH
Flight info
| Callsign | SAS7546 |
|---|---|
| Flight time | 1h 4m |
| Altitude | 37000 |
| Route | OKSAT L996 GETPA L996 KELIN DCT TOPLA L996 ERNOV |
| Aircraft | A343/H-SDE2E3FGHIJ4J5M1RWXY/LB1D1 |
Departure
| Time | 2026-05-05 07:54 |
|---|---|
| Airport | Oslo-Gardermoen International Airport (ENGM) |
Arrival
| Time | 2026-05-05 08:58 |
|---|---|
| Airport | Copenhagen Kastrup Airport (EKCH) |
| Time | Latitude | Longitude | Altitude | Speed | Heading |
|---|---|---|---|---|---|
| 2026-05-05 07:29 | 60.19444 | 11.10357 | 686 ft | 0 kts | 197° |
| 2026-05-05 07:40 | 60.19463 | 11.10368 | 686 ft | 4 kts | 195° |
| 2026-05-05 07:40 | 60.19489 | 11.10381 | 682 ft | 4 kts | 194° |
| 2026-05-05 07:41 | 60.19511 | 11.10394 | 684 ft | 4 kts | 207° |
| 2026-05-05 07:41 | 60.19527 | 11.10427 | 678 ft | 4 kts | 260° |
| 2026-05-05 07:41 | 60.19527 | 11.10479 | 680 ft | 4 kts | 282° |
| 2026-05-05 07:41 | 60.19521 | 11.10528 | 684 ft | 4 kts | 286° |
| 2026-05-05 07:42 | 60.19513 | 11.10581 | 684 ft | 4 kts | 286° |
| 2026-05-05 07:42 | 60.19506 | 11.10632 | 682 ft | 4 kts | 286° |
| 2026-05-05 07:42 | 60.19499 | 11.10679 | 685 ft | 1 kts | 286° |
| 2026-05-05 07:42 | 60.19499 | 11.10680 | 680 ft | 0 kts | 286° |
| 2026-05-05 07:44 | 60.19509 | 11.10620 | 680 ft | 13 kts | 293° |
| 2026-05-05 07:45 | 60.19624 | 11.10554 | 686 ft | 24 kts | 15° |
| 2026-05-05 07:45 | 60.19785 | 11.10656 | 684 ft | 24 kts | 19° |
| 2026-05-05 07:45 | 60.19916 | 11.10614 | 679 ft | 19 kts | 302° |
| 2026-05-05 07:45 | 60.19932 | 11.10357 | 687 ft | 19 kts | 272° |
| 2026-05-05 07:46 | 60.19957 | 11.10101 | 682 ft | 19 kts | 285° |
| 2026-05-05 07:46 | 60.19996 | 11.09840 | 680 ft | 20 kts | 287° |
| 2026-05-05 07:46 | 60.20034 | 11.09582 | 686 ft | 19 kts | 285° |
| 2026-05-05 07:46 | 60.20073 | 11.09320 | 679 ft | 20 kts | 287° |
| 2026-05-05 07:47 | 60.20111 | 11.09048 | 682 ft | 21 kts | 285° |
| 2026-05-05 07:47 | 60.20137 | 11.08767 | 677 ft | 18 kts | 253° |
| 2026-05-05 07:47 | 60.20063 | 11.08674 | 677 ft | 12 kts | 197° |
| 2026-05-05 07:47 | 60.19950 | 11.08610 | 679 ft | 22 kts | 197° |
| 2026-05-05 07:48 | 60.19800 | 11.08521 | 677 ft | 23 kts | 196° |
| 2026-05-05 07:48 | 60.19651 | 11.08437 | 681 ft | 22 kts | 196° |
| 2026-05-05 07:48 | 60.19506 | 11.08352 | 681 ft | 22 kts | 196° |
| 2026-05-05 07:48 | 60.19360 | 11.08267 | 680 ft | 22 kts | 197° |
| 2026-05-05 07:49 | 60.19209 | 11.08175 | 677 ft | 23 kts | 197° |
| 2026-05-05 07:49 | 60.19050 | 11.08080 | 675 ft | 24 kts | 194° |
| 2026-05-05 07:49 | 60.18886 | 11.07985 | 673 ft | 25 kts | 196° |
| 2026-05-05 07:49 | 60.18724 | 11.07888 | 670 ft | 24 kts | 197° |
| 2026-05-05 07:50 | 60.18582 | 11.07781 | 668 ft | 16 kts | 223° |
| 2026-05-05 07:50 | 60.18576 | 11.07643 | 669 ft | 0 kts | 291° |
| 2026-05-05 07:50 | 60.18576 | 11.07641 | 669 ft | 3 kts | 290° |
| 2026-05-05 07:51 | 60.18621 | 11.07478 | 668 ft | 15 kts | 329° |
| 2026-05-05 07:51 | 60.18688 | 11.07486 | 668 ft | 0 kts | 15° |
| 2026-05-05 07:52 | 60.18691 | 11.07488 | 668 ft | 0 kts | 15° |
| 2026-05-05 07:52 | 60.18692 | 11.07489 | 668 ft | 1 kts | 16° |
| 2026-05-05 07:53 | 60.18729 | 11.07509 | 669 ft | 22 kts | 15° |
| 2026-05-05 07:53 | 60.19080 | 11.07705 | 675 ft | 81 kts | 16° |
| 2026-05-05 07:53 | 60.19795 | 11.08121 | 678 ft | 129 kts | 16° |
| 2026-05-05 07:53 | 60.20781 | 11.08685 | 685 ft | 166 kts | 16° |
| 2026-05-05 07:54 | 60.21887 | 11.09354 | 1246 ft | 162 kts | 15° |
| 2026-05-05 07:54 | 60.22997 | 11.09984 | 1735 ft | 169 kts | 15° |
| 2026-05-05 07:54 | 60.24130 | 11.10638 | 2354 ft | 176 kts | 16° |
| 2026-05-05 07:54 | 60.25390 | 11.11301 | 2677 ft | 199 kts | 11° |
| 2026-05-05 07:55 | 60.26831 | 11.11367 | 3066 ft | 220 kts | 356° |
| 2026-05-05 07:55 | 60.28414 | 11.11716 | 3672 ft | 237 kts | 22° |
| 2026-05-05 07:55 | 60.29687 | 11.13907 | 4499 ft | 247 kts | 57° |
| 2026-05-05 07:55 | 60.30503 | 11.16977 | 5269 ft | 257 kts | 64° |
| 2026-05-05 07:56 | 60.31287 | 11.20262 | 6100 ft | 262 kts | 63° |
| 2026-05-05 07:56 | 60.32099 | 11.23659 | 6939 ft | 268 kts | 68° |
| 2026-05-05 07:56 | 60.32856 | 11.27078 | 7676 ft | 274 kts | 70° |
| 2026-05-05 07:56 | 60.33570 | 11.30397 | 8363 ft | 278 kts | 73° |
| 2026-05-05 07:57 | 60.34257 | 11.34068 | 9118 ft | 281 kts | 62° |
| 2026-05-05 07:57 | 60.35255 | 11.37469 | 9910 ft | 284 kts | 55° |
| 2026-05-05 07:57 | 60.36338 | 11.40976 | 10428 ft | 300 kts | 57° |
| 2026-05-05 07:57 | 60.37399 | 11.44717 | 10740 ft | 320 kts | 59° |
| 2026-05-05 07:58 | 60.38483 | 11.48776 | 11064 ft | 338 kts | 60° |
| 2026-05-05 07:58 | 60.39589 | 11.53127 | 11405 ft | 355 kts | 63° |
| 2026-05-05 07:58 | 60.40408 | 11.57907 | 11948 ft | 366 kts | 77° |
| 2026-05-05 07:58 | 60.40572 | 11.63087 | 12534 ft | 375 kts | 95° |
| 2026-05-05 07:59 | 60.40007 | 11.68202 | 13050 ft | 381 kts | 112° |
| 2026-05-05 07:59 | 60.38713 | 11.72883 | 13664 ft | 384 kts | 130° |
| 2026-05-05 07:59 | 60.36814 | 11.76644 | 14321 ft | 382 kts | 147° |
| 2026-05-05 07:59 | 60.34483 | 11.79157 | 14948 ft | 380 kts | 165° |
| 2026-05-05 08:00 | 60.31940 | 11.80224 | 15595 ft | 375 kts | 181° |
| 2026-05-05 08:00 | 60.29350 | 11.79829 | 16270 ft | 369 kts | 197° |
| 2026-05-05 08:00 | 60.26949 | 11.78147 | 16939 ft | 366 kts | 208° |
| 2026-05-05 08:00 | 60.24634 | 11.75984 | 17626 ft | 366 kts | 210° |
| 2026-05-05 08:01 | 60.22328 | 11.73798 | 18242 ft | 369 kts | 210° |
| 2026-05-05 08:01 | 60.19983 | 11.71602 | 18873 ft | 372 kts | 210° |
| 2026-05-05 08:01 | 60.17569 | 11.69611 | 19448 ft | 380 kts | 202° |
| 2026-05-05 08:01 | 60.14932 | 11.68740 | 19992 ft | 394 kts | 186° |
| 2026-05-05 08:02 | 60.12152 | 11.69075 | 20579 ft | 401 kts | 180° |
| 2026-05-05 08:02 | 60.09367 | 11.69638 | 21089 ft | 405 kts | 180° |
| 2026-05-05 08:02 | 60.06550 | 11.70194 | 21590 ft | 409 kts | 180° |
| 2026-05-05 08:02 | 60.03705 | 11.70748 | 22088 ft | 412 kts | 180° |
| 2026-05-05 08:03 | 60.00840 | 11.71296 | 22562 ft | 415 kts | 180° |
| 2026-05-05 08:03 | 59.97989 | 11.71837 | 23037 ft | 418 kts | 180° |
| 2026-05-05 08:03 | 59.95050 | 11.72391 | 23486 ft | 421 kts | 180° |
| 2026-05-05 08:03 | 59.92163 | 11.72930 | 23923 ft | 424 kts | 180° |
| 2026-05-05 08:04 | 59.89207 | 11.73482 | 24352 ft | 427 kts | 180° |
| 2026-05-05 08:04 | 59.86239 | 11.74035 | 24772 ft | 430 kts | 180° |
| 2026-05-05 08:04 | 59.83244 | 11.74591 | 25171 ft | 433 kts | 180° |
| 2026-05-05 08:04 | 59.80238 | 11.75149 | 25575 ft | 435 kts | 180° |
| 2026-05-05 08:05 | 59.77220 | 11.75708 | 25951 ft | 438 kts | 180° |
| 2026-05-05 08:05 | 59.74183 | 11.76268 | 26317 ft | 440 kts | 180° |
| 2026-05-05 08:05 | 59.71119 | 11.76831 | 26680 ft | 442 kts | 180° |
| 2026-05-05 08:05 | 59.68047 | 11.77396 | 27026 ft | 445 kts | 180° |
| 2026-05-05 08:06 | 59.64955 | 11.78058 | 27357 ft | 450 kts | 177° |
| 2026-05-05 08:06 | 59.61868 | 11.79403 | 27706 ft | 457 kts | 170° |
| 2026-05-05 08:06 | 59.58803 | 11.81134 | 28039 ft | 460 kts | 169° |
| 2026-05-05 08:06 | 59.55728 | 11.82899 | 28384 ft | 461 kts | 169° |
| 2026-05-05 08:07 | 59.52638 | 11.84659 | 28703 ft | 463 kts | 169° |
| 2026-05-05 08:07 | 59.49526 | 11.86419 | 29001 ft | 466 kts | 169° |
| 2026-05-05 08:07 | 59.46404 | 11.88178 | 29292 ft | 467 kts | 169° |
| 2026-05-05 08:07 | 59.43305 | 11.89918 | 29553 ft | 470 kts | 169° |
| 2026-05-05 08:08 | 59.40125 | 11.91699 | 29858 ft | 472 kts | 169° |
| 2026-05-05 08:08 | 59.36963 | 11.93466 | 30135 ft | 473 kts | 169° |
| 2026-05-05 08:08 | 59.33790 | 11.94937 | 30386 ft | 470 kts | 176° |
| 2026-05-05 08:08 | 59.30517 | 11.95451 | 30665 ft | 464 kts | 186° |
| 2026-05-05 08:09 | 59.27297 | 11.95281 | 31016 ft | 462 kts | 187° |
| 2026-05-05 08:09 | 59.24103 | 11.94949 | 31330 ft | 461 kts | 188° |
| 2026-05-05 08:09 | 59.21971 | 11.94689 | 31548 ft | 460 kts | 188° |
| 2026-05-05 08:09 | 59.17702 | 11.94149 | 31985 ft | 459 kts | 188° |
| 2026-05-05 08:10 | 59.15595 | 11.93890 | 32182 ft | 459 kts | 188° |
| 2026-05-05 08:10 | 59.12396 | 11.93509 | 32452 ft | 460 kts | 188° |
| 2026-05-05 08:10 | 59.09204 | 11.93148 | 32730 ft | 460 kts | 188° |
| 2026-05-05 08:10 | 59.04964 | 11.92684 | 33146 ft | 459 kts | 188° |
| 2026-05-05 08:11 | 59.01775 | 11.92341 | 33446 ft | 459 kts | 188° |
| 2026-05-05 08:11 | 58.99613 | 11.92106 | 33631 ft | 458 kts | 188° |
| 2026-05-05 08:11 | 58.96426 | 11.91763 | 33899 ft | 458 kts | 187° |
| 2026-05-05 08:11 | 58.93253 | 11.91424 | 34157 ft | 458 kts | 187° |
| 2026-05-05 08:12 | 58.90065 | 11.91084 | 34403 ft | 458 kts | 187° |
| 2026-05-05 08:12 | 58.86887 | 11.90744 | 34655 ft | 458 kts | 187° |
| 2026-05-05 08:12 | 58.83692 | 11.90409 | 34891 ft | 459 kts | 187° |
| 2026-05-05 08:12 | 58.80489 | 11.90471 | 35102 ft | 463 kts | 179° |
| 2026-05-05 08:13 | 58.77325 | 11.91125 | 35341 ft | 464 kts | 177° |
| 2026-05-05 08:13 | 58.74118 | 11.91936 | 35592 ft | 465 kts | 176° |
| 2026-05-05 08:13 | 58.70916 | 11.92811 | 35818 ft | 465 kts | 175° |
| 2026-05-05 08:13 | 58.67713 | 11.93708 | 36036 ft | 465 kts | 175° |
| 2026-05-05 08:14 | 58.64504 | 11.94607 | 36229 ft | 465 kts | 175° |
| 2026-05-05 08:14 | 58.61297 | 11.95496 | 36421 ft | 465 kts | 175° |
| 2026-05-05 08:14 | 58.58093 | 11.96374 | 36625 ft | 465 kts | 175° |
| 2026-05-05 08:14 | 58.54888 | 11.97245 | 36859 ft | 464 kts | 175° |
| 2026-05-05 08:15 | 58.51694 | 11.98118 | 37152 ft | 461 kts | 175° |
| 2026-05-05 08:15 | 58.48531 | 11.98971 | 37430 ft | 459 kts | 175° |
| 2026-05-05 08:15 | 58.45364 | 11.99818 | 37647 ft | 458 kts | 175° |
| 2026-05-05 08:15 | 58.42210 | 12.00658 | 37833 ft | 458 kts | 175° |
| 2026-05-05 08:16 | 58.39053 | 12.01496 | 37997 ft | 458 kts | 175° |
| 2026-05-05 08:16 | 58.35900 | 12.02333 | 38172 ft | 458 kts | 175° |
| 2026-05-05 08:16 | 58.32749 | 12.03172 | 38324 ft | 458 kts | 175° |
| 2026-05-05 08:16 | 58.29636 | 12.04002 | 38472 ft | 458 kts | 175° |
| 2026-05-05 08:17 | 58.26476 | 12.04841 | 38606 ft | 458 kts | 175° |
| 2026-05-05 08:17 | 58.23323 | 12.05678 | 38743 ft | 458 kts | 175° |
| 2026-05-05 08:17 | 58.20114 | 12.06537 | 38884 ft | 459 kts | 175° |
| 2026-05-05 08:17 | 58.16984 | 12.07366 | 38917 ft | 461 kts | 175° |
| 2026-05-05 08:18 | 58.10641 | 12.09034 | 38918 ft | 459 kts | 175° |
| 2026-05-05 08:18 | 58.04327 | 12.10688 | 38914 ft | 457 kts | 175° |
| 2026-05-05 08:19 | 57.98025 | 12.12336 | 38928 ft | 458 kts | 175° |
| 2026-05-05 08:19 | 57.91716 | 12.13980 | 38921 ft | 458 kts | 175° |
| 2026-05-05 08:20 | 57.85399 | 12.15621 | 38933 ft | 458 kts | 175° |
| 2026-05-05 08:20 | 57.79100 | 12.17252 | 38914 ft | 458 kts | 175° |
| 2026-05-05 08:21 | 57.72781 | 12.18881 | 38914 ft | 457 kts | 175° |
| 2026-05-05 08:21 | 57.66471 | 12.20502 | 38918 ft | 458 kts | 175° |
| 2026-05-05 08:22 | 57.63323 | 12.21309 | 38795 ft | 456 kts | 175° |
| 2026-05-05 08:22 | 57.60177 | 12.22114 | 38174 ft | 458 kts | 175° |
| 2026-05-05 08:22 | 57.57006 | 12.22922 | 37478 ft | 461 kts | 175° |
| 2026-05-05 08:22 | 57.53820 | 12.23733 | 36846 ft | 463 kts | 175° |
| 2026-05-05 08:23 | 57.50618 | 12.24548 | 36221 ft | 464 kts | 175° |
| 2026-05-05 08:23 | 57.47423 | 12.25361 | 35591 ft | 465 kts | 175° |
| 2026-05-05 08:23 | 57.44195 | 12.26179 | 34915 ft | 467 kts | 175° |
| 2026-05-05 08:23 | 57.40965 | 12.26997 | 34195 ft | 470 kts | 175° |
| 2026-05-05 08:24 | 57.37733 | 12.27815 | 33463 ft | 472 kts | 175° |
| 2026-05-05 08:24 | 57.34461 | 12.28641 | 32742 ft | 474 kts | 175° |
| 2026-05-05 08:24 | 57.31198 | 12.29463 | 32037 ft | 474 kts | 176° |
| 2026-05-05 08:24 | 57.27925 | 12.30286 | 31292 ft | 475 kts | 175° |
| 2026-05-05 08:25 | 57.24634 | 12.31113 | 30539 ft | 477 kts | 175° |
| 2026-05-05 08:25 | 57.21396 | 12.31924 | 29773 ft | 478 kts | 175° |
| 2026-05-05 08:25 | 57.18049 | 12.32762 | 29010 ft | 478 kts | 175° |
| 2026-05-05 08:25 | 57.14762 | 12.33584 | 28283 ft | 477 kts | 175° |
| 2026-05-05 08:26 | 57.11524 | 12.34397 | 27575 ft | 476 kts | 175° |
| 2026-05-05 08:26 | 57.08253 | 12.35216 | 26894 ft | 473 kts | 175° |
| 2026-05-05 08:26 | 57.04997 | 12.36026 | 26283 ft | 470 kts | 175° |
| 2026-05-05 08:26 | 57.01793 | 12.36822 | 25929 ft | 460 kts | 175° |
| 2026-05-05 08:27 | 56.98620 | 12.37608 | 25208 ft | 459 kts | 175° |
| 2026-05-05 08:27 | 56.95461 | 12.38388 | 24469 ft | 458 kts | 175° |
| 2026-05-05 08:27 | 56.92312 | 12.39163 | 23790 ft | 456 kts | 175° |
| 2026-05-05 08:27 | 56.89179 | 12.39934 | 23167 ft | 453 kts | 175° |
| 2026-05-05 08:28 | 56.86075 | 12.40697 | 22551 ft | 449 kts | 175° |
| 2026-05-05 08:28 | 56.82985 | 12.41457 | 21929 ft | 445 kts | 175° |
| 2026-05-05 08:28 | 56.79948 | 12.42204 | 21093 ft | 436 kts | 175° |
| 2026-05-05 08:28 | 56.77015 | 12.42929 | 20410 ft | 415 kts | 175° |
| 2026-05-05 08:29 | 56.74220 | 12.43623 | 19897 ft | 393 kts | 175° |
| 2026-05-05 08:29 | 56.71585 | 12.44274 | 19384 ft | 375 kts | 175° |
| 2026-05-05 08:29 | 56.69031 | 12.44898 | 18899 ft | 372 kts | 175° |
| 2026-05-05 08:30 | 56.64126 | 12.46072 | 17959 ft | 373 kts | 175° |
| 2026-05-05 08:30 | 56.61569 | 12.46685 | 17475 ft | 372 kts | 175° |
| 2026-05-05 08:30 | 56.59010 | 12.47301 | 16982 ft | 372 kts | 175° |
| 2026-05-05 08:30 | 56.56955 | 12.47797 | 16584 ft | 373 kts | 175° |
| 2026-05-05 08:31 | 56.54346 | 12.48427 | 16103 ft | 373 kts | 175° |
| 2026-05-05 08:31 | 56.51774 | 12.49047 | 15601 ft | 373 kts | 175° |
| 2026-05-05 08:31 | 56.49198 | 12.49667 | 15104 ft | 374 kts | 175° |
| 2026-05-05 08:31 | 56.46624 | 12.50287 | 14604 ft | 373 kts | 175° |
| 2026-05-05 08:32 | 56.44055 | 12.50907 | 14109 ft | 371 kts | 175° |
| 2026-05-05 08:32 | 56.41509 | 12.51520 | 13621 ft | 369 kts | 175° |
| 2026-05-05 08:32 | 56.38962 | 12.52138 | 13131 ft | 367 kts | 175° |
| 2026-05-05 08:32 | 56.36441 | 12.52740 | 12712 ft | 363 kts | 175° |
| 2026-05-05 08:33 | 56.33983 | 12.53329 | 12586 ft | 351 kts | 175° |
| 2026-05-05 08:33 | 56.31593 | 12.53901 | 12483 ft | 340 kts | 175° |
| 2026-05-05 08:33 | 56.29345 | 12.54438 | 12364 ft | 330 kts | 175° |
| 2026-05-05 08:33 | 56.27109 | 12.54970 | 12220 ft | 321 kts | 175° |
| 2026-05-05 08:34 | 56.24934 | 12.55488 | 12075 ft | 313 kts | 175° |
| 2026-05-05 08:34 | 56.22840 | 12.55985 | 11937 ft | 306 kts | 176° |
| 2026-05-05 08:34 | 56.20739 | 12.56481 | 11700 ft | 301 kts | 176° |
| 2026-05-05 08:34 | 56.18672 | 12.56967 | 11447 ft | 299 kts | 176° |
| 2026-05-05 08:35 | 56.16650 | 12.57537 | 11270 ft | 295 kts | 170° |
| 2026-05-05 08:35 | 56.14701 | 12.58717 | 10931 ft | 298 kts | 159° |
| 2026-05-05 08:35 | 56.12805 | 12.60211 | 10624 ft | 298 kts | 159° |
| 2026-05-05 08:35 | 56.10919 | 12.61748 | 10340 ft | 297 kts | 158° |
| 2026-05-05 08:36 | 56.09064 | 12.63321 | 9986 ft | 294 kts | 157° |
| 2026-05-05 08:36 | 56.07234 | 12.64926 | 9397 ft | 290 kts | 156° |
| 2026-05-05 08:36 | 56.05437 | 12.66534 | 8607 ft | 288 kts | 155° |
| 2026-05-05 08:36 | 56.03650 | 12.68152 | 7822 ft | 286 kts | 155° |
| 2026-05-05 08:37 | 56.01882 | 12.69759 | 7073 ft | 283 kts | 155° |
| 2026-05-05 08:37 | 56.00143 | 12.71338 | 6483 ft | 274 kts | 155° |
| 2026-05-05 08:37 | 55.98473 | 12.72855 | 6132 ft | 265 kts | 155° |
| 2026-05-05 08:37 | 55.96843 | 12.74330 | 5831 ft | 265 kts | 155° |
| 2026-05-05 08:38 | 55.95210 | 12.75798 | 5518 ft | 267 kts | 155° |
| 2026-05-05 08:38 | 55.93671 | 12.77176 | 5230 ft | 269 kts | 155° |
| 2026-05-05 08:38 | 55.91995 | 12.78674 | 4924 ft | 271 kts | 155° |
| 2026-05-05 08:38 | 55.90311 | 12.80178 | 4654 ft | 269 kts | 155° |
| 2026-05-05 08:39 | 55.88627 | 12.81686 | 4337 ft | 270 kts | 155° |
| 2026-05-05 08:39 | 55.86978 | 12.83170 | 4240 ft | 260 kts | 154° |
| 2026-05-05 08:39 | 55.85396 | 12.84599 | 4113 ft | 252 kts | 155° |
| 2026-05-05 08:39 | 55.83871 | 12.85967 | 3978 ft | 247 kts | 154° |
| 2026-05-05 08:40 | 55.82435 | 12.87251 | 3830 ft | 240 kts | 155° |
| 2026-05-05 08:40 | 55.80925 | 12.88597 | 3558 ft | 239 kts | 154° |
| 2026-05-05 08:40 | 55.79462 | 12.89883 | 3277 ft | 238 kts | 156° |
| 2026-05-05 08:40 | 55.77846 | 12.90323 | 3009 ft | 231 kts | 195° |
| 2026-05-05 08:41 | 55.76508 | 12.88962 | 2992 ft | 222 kts | 226° |
| 2026-05-05 08:41 | 55.75443 | 12.86962 | 2984 ft | 226 kts | 229° |
| 2026-05-05 08:41 | 55.74328 | 12.85002 | 3010 ft | 219 kts | 224° |
| 2026-05-05 08:41 | 55.73220 | 12.83362 | 2907 ft | 211 kts | 221° |
| 2026-05-05 08:42 | 55.72114 | 12.81658 | 2548 ft | 208 kts | 224° |
| 2026-05-05 08:42 | 55.71072 | 12.80003 | 2242 ft | 196 kts | 223° |
| 2026-05-05 08:42 | 55.70080 | 12.78470 | 1991 ft | 181 kts | 222° |
| 2026-05-05 08:42 | 55.69180 | 12.77073 | 1767 ft | 165 kts | 223° |
| 2026-05-05 08:43 | 55.68357 | 12.75787 | 1522 ft | 152 kts | 223° |
| 2026-05-05 08:43 | 55.67586 | 12.74573 | 1273 ft | 147 kts | 223° |
| 2026-05-05 08:43 | 55.66793 | 12.73310 | 1070 ft | 158 kts | 223° |
| 2026-05-05 08:43 | 55.65983 | 12.72023 | 926 ft | 150 kts | 221° |
| 2026-05-05 08:44 | 55.65217 | 12.70908 | 788 ft | 136 kts | 218° |
| 2026-05-05 08:44 | 55.64502 | 12.69888 | 580 ft | 128 kts | 220° |
| 2026-05-05 08:44 | 55.63841 | 12.68847 | 414 ft | 127 kts | 222° |
| 2026-05-05 08:44 | 55.63190 | 12.67807 | 280 ft | 124 kts | 223° |
| 2026-05-05 08:45 | 55.62561 | 12.66832 | 100 ft | 117 kts | 221° |
| 2026-05-05 08:45 | 55.62018 | 12.65704 | 377 ft | 133 kts | 226° |
| 2026-05-05 08:45 | 55.61173 | 12.64939 | 825 ft | 153 kts | 197° |
| 2026-05-05 08:45 | 55.60154 | 12.64168 | 1457 ft | 161 kts | 213° |
| 2026-05-05 08:46 | 55.59202 | 12.63274 | 2301 ft | 153 kts | 198° |
| 2026-05-05 08:46 | 55.58116 | 12.63430 | 2603 ft | 175 kts | 155° |
| 2026-05-05 08:46 | 55.57206 | 12.65085 | 2882 ft | 201 kts | 115° |
| 2026-05-05 08:46 | 55.57003 | 12.67507 | 2979 ft | 202 kts | 79° |
| 2026-05-05 08:47 | 55.57100 | 12.68292 | 2987 ft | 201 kts | 72° |
| 2026-05-05 08:47 | 55.57577 | 12.70590 | 2994 ft | 198 kts | 66° |
| 2026-05-05 08:47 | 55.58052 | 12.72589 | 2994 ft | 198 kts | 65° |
| 2026-05-05 08:47 | 55.58585 | 12.74773 | 2993 ft | 198 kts | 65° |
| 2026-05-05 08:48 | 55.59126 | 12.76977 | 2996 ft | 198 kts | 65° |
| 2026-05-05 08:48 | 55.59651 | 12.79071 | 3100 ft | 199 kts | 65° |
| 2026-05-05 08:48 | 55.60204 | 12.81329 | 3009 ft | 196 kts | 65° |
| 2026-05-05 08:48 | 55.60741 | 12.83533 | 2994 ft | 193 kts | 65° |
| 2026-05-05 08:49 | 55.61244 | 12.85626 | 2996 ft | 190 kts | 64° |
| 2026-05-05 08:49 | 55.61872 | 12.87707 | 2994 ft | 186 kts | 48° |
| 2026-05-05 08:49 | 55.62815 | 12.89261 | 3007 ft | 184 kts | 36° |
| 2026-05-05 08:49 | 55.63820 | 12.90660 | 2997 ft | 184 kts | 34° |
| 2026-05-05 08:50 | 55.64826 | 12.92043 | 2992 ft | 184 kts | 35° |
| 2026-05-05 08:50 | 55.65836 | 12.93439 | 2994 ft | 183 kts | 35° |
| 2026-05-05 08:50 | 55.66833 | 12.94812 | 2994 ft | 183 kts | 36° |
| 2026-05-05 08:50 | 55.67838 | 12.96193 | 3004 ft | 181 kts | 35° |
| 2026-05-05 08:51 | 55.68849 | 12.97539 | 2994 ft | 181 kts | 30° |
| 2026-05-05 08:51 | 55.70033 | 12.98129 | 2997 ft | 178 kts | 354° |
| 2026-05-05 08:51 | 55.71179 | 12.97581 | 3000 ft | 177 kts | 338° |
| 2026-05-05 08:51 | 55.72308 | 12.96725 | 2994 ft | 177 kts | 335° |
| 2026-05-05 08:52 | 55.73439 | 12.95821 | 2998 ft | 178 kts | 335° |
| 2026-05-05 08:52 | 55.74566 | 12.94917 | 2997 ft | 178 kts | 335° |
| 2026-05-05 08:52 | 55.75646 | 12.93836 | 2979 ft | 178 kts | 319° |
| 2026-05-05 08:52 | 55.76227 | 12.92061 | 2659 ft | 174 kts | 282° |
| 2026-05-05 08:53 | 55.76137 | 12.89884 | 2186 ft | 180 kts | 259° |
| 2026-05-05 08:53 | 55.75757 | 12.87854 | 2002 ft | 178 kts | 245° |
| 2026-05-05 08:53 | 55.74952 | 12.86120 | 1996 ft | 186 kts | 226° |
| 2026-05-05 08:53 | 55.73968 | 12.84566 | 1963 ft | 193 kts | 224° |
| 2026-05-05 08:54 | 55.72965 | 12.82970 | 1973 ft | 194 kts | 224° |
| 2026-05-05 08:54 | 55.71959 | 12.81396 | 1993 ft | 193 kts | 224° |
| 2026-05-05 08:54 | 55.70962 | 12.79846 | 1996 ft | 184 kts | 224° |
| 2026-05-05 08:54 | 55.70070 | 12.78463 | 1993 ft | 156 kts | 225° |
| 2026-05-05 08:55 | 55.69315 | 12.77289 | 1847 ft | 142 kts | 225° |
| 2026-05-05 08:55 | 55.68593 | 12.76162 | 1665 ft | 137 kts | 226° |
| 2026-05-05 08:55 | 55.67884 | 12.75051 | 1485 ft | 140 kts | 224° |
| 2026-05-05 08:55 | 55.67135 | 12.73889 | 1277 ft | 141 kts | 225° |
| 2026-05-05 08:56 | 55.66403 | 12.72749 | 1081 ft | 140 kts | 226° |
| 2026-05-05 08:56 | 55.65673 | 12.71608 | 864 ft | 139 kts | 226° |
| 2026-05-05 08:56 | 55.65193 | 12.70853 | 756 ft | 140 kts | 223° |
| 2026-05-05 08:56 | 55.64446 | 12.69723 | 594 ft | 142 kts | 226° |
| 2026-05-05 08:57 | 55.63509 | 12.68228 | 381 ft | 130 kts | 223° |
| 2026-05-05 08:57 | 55.63050 | 12.67545 | 253 ft | 125 kts | 223° |
| 2026-05-05 08:57 | 55.62417 | 12.66559 | 52 ft | 121 kts | 222° |
| 2026-05-05 08:57 | 55.61845 | 12.65677 | 26 ft | 100 kts | 220° |
| 2026-05-05 08:58 | 55.61384 | 12.64950 | 26 ft | 67 kts | 227° |
| 2026-05-05 08:58 | 55.61276 | 12.64713 | 25 ft | 1 kts | 239° |
| 2026-05-05 08:58 | 55.61209 | 12.64439 | 21 ft | 23 kts | 259° |
| 2026-05-05 08:58 | 55.61191 | 12.64323 | 25 ft | 22 kts | 254° |
| 2026-05-05 08:59 | 55.61252 | 12.64111 | 24 ft | 11 kts | 359° |
| 2026-05-05 08:59 | 55.61352 | 12.64191 | 23 ft | 26 kts | 32° |
| 2026-05-05 08:59 | 55.61535 | 12.64402 | 23 ft | 34 kts | 33° |
| 2026-05-05 08:59 | 55.61640 | 12.64532 | 24 ft | 33 kts | 38° |
| 2026-05-05 09:00 | 55.61817 | 12.64752 | 24 ft | 31 kts | 29° |
| 2026-05-05 09:00 | 55.61999 | 12.64943 | 25 ft | 30 kts | 32° |
| 2026-05-05 09:00 | 55.62159 | 12.65067 | 23 ft | 15 kts | 347° |
| 2026-05-05 09:00 | 55.62239 | 12.64938 | 24 ft | 20 kts | 303° |
| 2026-05-05 09:01 | 55.62326 | 12.64670 | 21 ft | 27 kts | 303° |
| 2026-05-05 09:01 | 55.62380 | 12.64528 | 23 ft | 10 kts | 304° |
| 2026-05-05 09:01 | 55.62434 | 12.64401 | 21 ft | 19 kts | 309° |
| 2026-05-05 09:01 | 55.62511 | 12.64236 | 22 ft | 16 kts | 309° |
| 2026-05-05 09:02 | 55.62527 | 12.64215 | 21 ft | 1 kts | 329° |
| 2026-05-05 09:02 | 55.62547 | 12.64217 | 21 ft | 8 kts | 21° |
| 2026-05-05 09:02 | 55.62592 | 12.64303 | 24 ft | 16 kts | 59° |
| 2026-05-05 09:02 | 55.62620 | 12.64405 | 21 ft | 0 kts | 65° |
| 2026-05-05 09:03 | 55.62622 | 12.64413 | 23 ft | 0 kts | 66° |
| 2026-05-05 09:03 | 55.62623 | 12.64419 | 21 ft | 0 kts | 66° |